THY458 LTFM-EDDK
Flight info
| Callsign | THY458 |
|---|---|
| Flight time | N/A |
| Altitude | 38000 |
| Route | TUDBU1D/35L TUDBU Q26 ETUBA DCT NAVOD DCT INVED DCT EBORO DCT DUZLA DCT OGVUN DCT BEGLA DCT STO DCT DITIS DCT RAPET T843 VELIS/N0444F320 DCT MASEK T841 ERNEP ERNEP1F |
| Aircraft | B77W/H-SDE1E2E3FGHIJ2J3J4J5M1RWXY/LB1D1 |
Departure
| Time | N/A |
|---|---|
| Airport | İstanbul Airport (LTFM) |
Arrival
| Time | 2026-04-22 20:34 |
|---|---|
| Airport | Cologne Bonn Airport (EDDK) |
| Time | Latitude | Longitude | Altitude | Speed | Heading |
|---|---|---|---|---|---|
| 2026-04-22 19:34 | 47.26783 | 18.09805 | 38126 ft | 465 kts | 309° |
| 2026-04-22 19:35 | 47.30584 | 18.01984 | 38170 ft | 474 kts | 308° |
| 2026-04-22 19:35 | 47.34429 | 17.94040 | 38175 ft | 475 kts | 308° |
| 2026-04-22 19:36 | 47.38275 | 17.86110 | 38181 ft | 475 kts | 310° |
| 2026-04-22 19:36 | 47.42532 | 17.78792 | 38110 ft | 471 kts | 315° |
| 2026-04-22 19:36 | 47.44744 | 17.75202 | 37775 ft | 470 kts | 315° |
| 2026-04-22 19:37 | 47.46943 | 17.71636 | 37480 ft | 466 kts | 315° |
| 2026-04-22 19:37 | 47.49110 | 17.68103 | 37260 ft | 460 kts | 315° |
| 2026-04-22 19:37 | 47.51236 | 17.64612 | 37219 ft | 455 kts | 315° |
| 2026-04-22 19:38 | 47.55457 | 17.57640 | 37201 ft | 460 kts | 315° |
| 2026-04-22 19:38 | 47.59759 | 17.50503 | 37195 ft | 470 kts | 315° |
| 2026-04-22 19:39 | 47.64168 | 17.43165 | 37175 ft | 482 kts | 315° |
| 2026-04-22 19:39 | 47.68676 | 17.35637 | 37200 ft | 492 kts | 315° |
| 2026-04-22 19:40 | 47.73226 | 17.28016 | 37199 ft | 499 kts | 315° |
| 2026-04-22 19:40 | 47.77844 | 17.20257 | 37198 ft | 502 kts | 314° |
| 2026-04-22 19:41 | 47.82478 | 17.12455 | 37187 ft | 503 kts | 315° |
| 2026-04-22 19:41 | 47.87744 | 17.03120 | 37192 ft | 505 kts | 312° |
| 2026-04-22 19:42 | 47.93469 | 16.92410 | 37193 ft | 504 kts | 312° |
| 2026-04-22 19:42 | 47.97852 | 16.84250 | 37206 ft | 503 kts | 312° |
| 2026-04-22 19:43 | 48.06567 | 16.68085 | 37210 ft | 501 kts | 312° |
| 2026-04-22 19:43 | 48.10940 | 16.59939 | 36906 ft | 504 kts | 312° |
| 2026-04-22 19:44 | 48.13138 | 16.55835 | 36647 ft | 502 kts | 312° |
| 2026-04-22 19:44 | 48.15309 | 16.51770 | 36391 ft | 498 kts | 312° |
| 2026-04-22 19:44 | 48.17442 | 16.47771 | 36273 ft | 494 kts | 312° |
| 2026-04-22 19:44 | 48.19598 | 16.43723 | 36225 ft | 499 kts | 312° |
| 2026-04-22 19:45 | 48.23966 | 16.35487 | 36228 ft | 508 kts | 312° |
| 2026-04-22 19:45 | 48.29294 | 16.25434 | 36219 ft | 511 kts | 312° |
| 2026-04-22 19:46 | 48.34753 | 16.15100 | 36232 ft | 512 kts | 311° |
| 2026-04-22 19:46 | 48.39610 | 16.05875 | 36208 ft | 510 kts | 311° |
| 2026-04-22 19:47 | 48.45464 | 15.94838 | 36225 ft | 509 kts | 313° |
| 2026-04-22 19:47 | 48.50206 | 15.86085 | 36242 ft | 509 kts | 313° |
| 2026-04-22 19:48 | 48.54688 | 15.77786 | 36233 ft | 510 kts | 313° |
| 2026-04-22 19:48 | 48.60704 | 15.66567 | 36229 ft | 509 kts | 312° |
| 2026-04-22 19:49 | 48.71207 | 15.46844 | 36245 ft | 510 kts | 313° |
| 2026-04-22 19:49 | 48.75655 | 15.38453 | 36258 ft | 510 kts | 312° |
| 2026-04-22 19:50 | 48.80106 | 15.30029 | 36256 ft | 511 kts | 312° |
| 2026-04-22 19:50 | 48.84557 | 15.21579 | 36260 ft | 512 kts | 312° |
| 2026-04-22 19:51 | 48.88979 | 15.13162 | 36260 ft | 513 kts | 312° |
| 2026-04-22 19:51 | 48.93346 | 15.04560 | 36260 ft | 514 kts | 310° |
| 2026-04-22 19:52 | 48.97573 | 14.95786 | 36265 ft | 513 kts | 309° |
| 2026-04-22 19:52 | 49.01793 | 14.86994 | 36260 ft | 513 kts | 310° |
| 2026-04-22 19:53 | 49.06031 | 14.78214 | 36276 ft | 514 kts | 310° |
| 2026-04-22 19:53 | 49.10166 | 14.69352 | 36256 ft | 518 kts | 304° |
| 2026-04-22 19:54 | 49.13621 | 14.59643 | 36288 ft | 520 kts | 301° |
| 2026-04-22 19:54 | 49.16979 | 14.49784 | 36282 ft | 521 kts | 301° |
| 2026-04-22 19:55 | 49.20343 | 14.39996 | 36290 ft | 521 kts | 301° |
| 2026-04-22 19:55 | 49.23720 | 14.30258 | 36272 ft | 520 kts | 301° |
| 2026-04-22 19:56 | 49.27411 | 14.19610 | 36285 ft | 520 kts | 301° |
| 2026-04-22 19:56 | 49.30793 | 14.09809 | 36295 ft | 519 kts | 301° |
| 2026-04-22 19:57 | 49.35053 | 13.97401 | 36281 ft | 520 kts | 301° |
| 2026-04-22 19:57 | 49.39689 | 13.83824 | 36293 ft | 521 kts | 301° |
| 2026-04-22 19:58 | 49.43049 | 13.73939 | 36297 ft | 522 kts | 301° |
| 2026-04-22 19:58 | 49.46403 | 13.64035 | 36298 ft | 522 kts | 301° |
| 2026-04-22 20:00 | 49.59511 | 13.24945 | 36296 ft | 523 kts | 300° |
| 2026-04-22 20:01 | 49.62829 | 13.14955 | 36295 ft | 523 kts | 300° |
| 2026-04-22 20:01 | 49.66135 | 13.04962 | 36302 ft | 522 kts | 300° |
| 2026-04-22 20:02 | 49.69429 | 12.94964 | 36293 ft | 522 kts | 300° |
| 2026-04-22 20:02 | 49.77523 | 12.70244 | 36306 ft | 523 kts | 300° |
| 2026-04-22 20:03 | 49.80777 | 12.60224 | 36309 ft | 524 kts | 300° |
| 2026-04-22 20:03 | 49.84042 | 12.50132 | 36316 ft | 524 kts | 300° |
| 2026-04-22 20:04 | 49.87308 | 12.40001 | 36318 ft | 525 kts | 300° |
| 2026-04-22 20:04 | 49.94543 | 12.17417 | 36338 ft | 523 kts | 299° |
| 2026-04-22 20:05 | 49.97768 | 12.07280 | 36313 ft | 523 kts | 299° |
| 2026-04-22 20:05 | 50.00986 | 11.97116 | 36331 ft | 523 kts | 299° |
| 2026-04-22 20:06 | 50.07164 | 11.77509 | 36257 ft | 523 kts | 298° |
| 2026-04-22 20:06 | 50.10734 | 11.66104 | 36320 ft | 522 kts | 298° |
| 2026-04-22 20:07 | 50.13906 | 11.55920 | 36322 ft | 524 kts | 298° |
| 2026-04-22 20:07 | 50.17085 | 11.45675 | 36320 ft | 524 kts | 298° |
| 2026-04-22 20:08 | 50.19719 | 11.37156 | 36322 ft | 524 kts | 298° |
| 2026-04-22 20:08 | 50.24609 | 11.21264 | 36332 ft | 524 kts | 298° |
| 2026-04-22 20:09 | 50.28050 | 11.10019 | 36321 ft | 524 kts | 298° |
| 2026-04-22 20:09 | 50.31164 | 10.99793 | 36307 ft | 522 kts | 298° |
| 2026-04-22 20:09 | 50.32746 | 10.94581 | 35896 ft | 524 kts | 298° |
| 2026-04-22 20:10 | 50.34304 | 10.89442 | 35450 ft | 522 kts | 298° |
| 2026-04-22 20:10 | 50.35839 | 10.84364 | 35031 ft | 520 kts | 298° |
| 2026-04-22 20:10 | 50.37387 | 10.79235 | 34614 ft | 518 kts | 297° |
| 2026-04-22 20:10 | 50.38927 | 10.74121 | 34130 ft | 518 kts | 297° |
| 2026-04-22 20:11 | 50.40464 | 10.69010 | 33645 ft | 518 kts | 297° |
| 2026-04-22 20:11 | 50.41992 | 10.63918 | 33160 ft | 515 kts | 297° |
| 2026-04-22 20:11 | 50.46224 | 10.49762 | 31856 ft | 507 kts | 297° |
| 2026-04-22 20:11 | 50.52155 | 10.29957 | 30407 ft | 488 kts | 297° |
| 2026-04-22 20:12 | 50.55113 | 10.20078 | 30372 ft | 476 kts | 297° |
| 2026-04-22 20:12 | 50.56544 | 10.15291 | 30464 ft | 488 kts | 297° |
| 2026-04-22 20:12 | 50.58005 | 10.10397 | 30535 ft | 500 kts | 297° |
| 2026-04-22 20:12 | 50.59499 | 10.05378 | 30546 ft | 512 kts | 296° |
| 2026-04-22 20:13 | 50.65352 | 9.85568 | 30566 ft | 532 kts | 296° |
| 2026-04-22 20:13 | 50.69034 | 9.73019 | 30529 ft | 520 kts | 296° |
| 2026-04-22 20:14 | 50.79621 | 9.38291 | 30549 ft | 525 kts | 299° |
| 2026-04-22 20:14 | 50.86584 | 9.16745 | 30529 ft | 507 kts | 298° |
| 2026-04-22 20:14 | 50.88116 | 9.11842 | 30519 ft | 486 kts | 298° |
| 2026-04-22 20:15 | 50.89584 | 9.07135 | 30515 ft | 468 kts | 298° |
| 2026-04-22 20:15 | 50.91011 | 9.02575 | 30423 ft | 455 kts | 298° |
| 2026-04-22 20:15 | 50.92405 | 8.98125 | 30315 ft | 446 kts | 298° |
| 2026-04-22 20:15 | 50.93777 | 8.93735 | 30085 ft | 440 kts | 298° |
| 2026-04-22 20:16 | 50.95140 | 8.89413 | 29759 ft | 437 kts | 299° |
| 2026-04-22 20:16 | 50.96509 | 8.85184 | 29369 ft | 435 kts | 299° |
| 2026-04-22 20:16 | 50.97895 | 8.80919 | 29002 ft | 433 kts | 299° |
| 2026-04-22 20:16 | 51.00273 | 8.73310 | 28371 ft | 429 kts | 292° |
| 2026-04-22 20:17 | 51.01170 | 8.63997 | 27720 ft | 427 kts | 266° |
| 2026-04-22 20:17 | 51.00184 | 8.54740 | 26964 ft | 424 kts | 258° |
| 2026-04-22 20:17 | 50.99100 | 8.45753 | 26497 ft | 416 kts | 259° |
| 2026-04-22 20:17 | 50.98586 | 8.41249 | 26220 ft | 413 kts | 260° |
| 2026-04-22 20:18 | 50.98082 | 8.36760 | 25885 ft | 412 kts | 260° |
| 2026-04-22 20:18 | 50.97585 | 8.32343 | 25579 ft | 411 kts | 260° |
| 2026-04-22 20:18 | 50.97018 | 8.27902 | 25297 ft | 409 kts | 256° |
| 2026-04-22 20:18 | 50.96163 | 8.23602 | 25002 ft | 407 kts | 249° |
| 2026-04-22 20:19 | 50.95170 | 8.19349 | 24715 ft | 405 kts | 249° |
| 2026-04-22 20:19 | 50.94180 | 8.15163 | 24434 ft | 403 kts | 249° |
| 2026-04-22 20:19 | 50.93199 | 8.11010 | 24159 ft | 402 kts | 249° |
| 2026-04-22 20:19 | 50.92268 | 8.06937 | 24008 ft | 392 kts | 254° |
| 2026-04-22 20:20 | 50.92011 | 8.02693 | 23547 ft | 387 kts | 279° |
| 2026-04-22 20:20 | 50.92840 | 7.98643 | 22925 ft | 380 kts | 300° |
| 2026-04-22 20:20 | 50.94156 | 7.95009 | 22300 ft | 380 kts | 303° |
| 2026-04-22 20:20 | 50.95626 | 7.91515 | 21639 ft | 380 kts | 309° |
| 2026-04-22 20:21 | 50.97228 | 7.88325 | 20987 ft | 369 kts | 312° |
| 2026-04-22 20:21 | 50.98842 | 7.85225 | 20343 ft | 359 kts | 312° |
| 2026-04-22 20:21 | 51.00404 | 7.82189 | 19703 ft | 350 kts | 312° |
| 2026-04-22 20:21 | 51.01749 | 7.79017 | 19082 ft | 346 kts | 296° |
| 2026-04-22 20:22 | 51.02305 | 7.75323 | 18474 ft | 342 kts | 279° |
| 2026-04-22 20:22 | 51.02601 | 7.71607 | 17802 ft | 336 kts | 280° |
| 2026-04-22 20:22 | 51.02910 | 7.67966 | 17130 ft | 329 kts | 281° |
| 2026-04-22 20:22 | 51.03228 | 7.64421 | 16445 ft | 318 kts | 281° |
| 2026-04-22 20:23 | 51.03546 | 7.60969 | 15816 ft | 314 kts | 281° |
| 2026-04-22 20:23 | 51.03855 | 7.57626 | 15183 ft | 306 kts | 282° |
| 2026-04-22 20:23 | 51.04157 | 7.54328 | 14564 ft | 297 kts | 281° |
| 2026-04-22 20:23 | 51.04452 | 7.51118 | 13928 ft | 290 kts | 281° |
| 2026-04-22 20:24 | 51.04739 | 7.47972 | 13251 ft | 284 kts | 281° |
| 2026-04-22 20:24 | 51.05021 | 7.44901 | 12588 ft | 278 kts | 281° |
| 2026-04-22 20:24 | 51.05298 | 7.41878 | 11948 ft | 273 kts | 281° |
| 2026-04-22 20:24 | 51.05570 | 7.38911 | 11331 ft | 269 kts | 281° |
| 2026-04-22 20:25 | 51.05833 | 7.36016 | 10717 ft | 266 kts | 280° |
| 2026-04-22 20:25 | 51.06095 | 7.33117 | 10106 ft | 265 kts | 280° |
| 2026-04-22 20:25 | 51.06360 | 7.30190 | 9465 ft | 268 kts | 280° |
| 2026-04-22 20:25 | 51.06627 | 7.27228 | 8830 ft | 272 kts | 279° |
| 2026-04-22 20:26 | 51.06900 | 7.24194 | 8287 ft | 281 kts | 279° |
| 2026-04-22 20:26 | 51.07187 | 7.20986 | 7753 ft | 277 kts | 279° |
| 2026-04-22 20:26 | 51.07442 | 7.18112 | 7263 ft | 273 kts | 279° |
| 2026-04-22 20:26 | 51.07700 | 7.15182 | 6795 ft | 268 kts | 279° |
| 2026-04-22 20:27 | 51.07918 | 7.12289 | 6245 ft | 259 kts | 272° |
| 2026-04-22 20:27 | 51.07847 | 7.09382 | 5762 ft | 266 kts | 266° |
| 2026-04-22 20:27 | 51.07695 | 7.06388 | 5260 ft | 266 kts | 265° |
| 2026-04-22 20:27 | 51.07566 | 7.03538 | 4749 ft | 256 kts | 266° |
| 2026-04-22 20:28 | 51.07450 | 7.00728 | 4330 ft | 255 kts | 266° |
| 2026-04-22 20:28 | 51.07259 | 6.97937 | 3957 ft | 250 kts | 250° |
| 2026-04-22 20:28 | 51.06412 | 6.95660 | 3882 ft | 234 kts | 225° |
| 2026-04-22 20:28 | 51.05315 | 6.93831 | 3722 ft | 223 kts | 224° |
| 2026-04-22 20:29 | 51.04158 | 6.92381 | 3617 ft | 205 kts | 198° |
| 2026-04-22 20:29 | 51.02822 | 6.92286 | 3465 ft | 187 kts | 157° |
| 2026-04-22 20:29 | 51.01785 | 6.93322 | 3373 ft | 175 kts | 141° |
| 2026-04-22 20:29 | 51.00794 | 6.94501 | 3264 ft | 177 kts | 139° |
| 2026-04-22 20:30 | 50.99872 | 6.95734 | 3149 ft | 170 kts | 136° |
| 2026-04-22 20:30 | 50.99002 | 6.96975 | 3068 ft | 167 kts | 135° |
| 2026-04-22 20:30 | 50.98137 | 6.98230 | 2948 ft | 171 kts | 135° |
| 2026-04-22 20:30 | 50.97269 | 6.99494 | 2738 ft | 167 kts | 134° |
| 2026-04-22 20:31 | 50.96415 | 7.00739 | 2505 ft | 166 kts | 134° |
| 2026-04-22 20:31 | 50.95587 | 7.01944 | 2259 ft | 155 kts | 133° |
| 2026-04-22 20:31 | 50.94845 | 7.03025 | 2050 ft | 139 kts | 132° |
| 2026-04-22 20:31 | 50.94133 | 7.04066 | 1893 ft | 138 kts | 131° |
| 2026-04-22 20:32 | 50.93436 | 7.05081 | 1729 ft | 136 kts | 131° |
| 2026-04-22 20:32 | 50.92742 | 7.06088 | 1528 ft | 135 kts | 132° |
| 2026-04-22 20:32 | 50.92059 | 7.07084 | 1336 ft | 135 kts | 131° |
| 2026-04-22 20:32 | 50.91341 | 7.08104 | 1164 ft | 141 kts | 134° |
| 2026-04-22 20:33 | 50.90621 | 7.09176 | 947 ft | 142 kts | 133° |
| 2026-04-22 20:33 | 50.89905 | 7.10215 | 747 ft | 134 kts | 135° |
| 2026-04-22 20:33 | 50.89237 | 7.11181 | 642 ft | 129 kts | 131° |
| 2026-04-22 20:33 | 50.88574 | 7.12155 | 415 ft | 130 kts | 134° |
| 2026-04-22 20:34 | 50.87883 | 7.13141 | 268 ft | 135 kts | 134° |
| 2026-04-22 20:34 | 50.87222 | 7.14106 | 251 ft | 114 kts | 139° |
| 2026-04-22 20:34 | 50.86725 | 7.14824 | 274 ft | 79 kts | 137° |
| 2026-04-22 20:34 | 50.86409 | 7.15253 | 288 ft | 39 kts | 154° |
| 2026-04-22 20:35 | 50.86181 | 7.15350 | 298 ft | 24 kts | 167° |
| 2026-04-22 20:35 | 50.86053 | 7.15254 | 299 ft | 7 kts | 252° |
| 2026-04-22 20:35 | 50.86044 | 7.15198 | 298 ft | 6 kts | 261° |
| 2026-04-22 20:35 | 50.86056 | 7.15122 | 296 ft | 9 kts | 303° |
| 2026-04-22 20:36 | 50.86105 | 7.15045 | 297 ft | 11 kts | 318° |
| 2026-04-22 20:36 | 50.86171 | 7.14951 | 295 ft | 14 kts | 318° |
| 2026-04-22 20:36 | 50.86253 | 7.14834 | 285 ft | 18 kts | 318° |
| 2026-04-22 20:36 | 50.86346 | 7.14698 | 280 ft | 18 kts | 317° |
| 2026-04-22 20:37 | 50.86448 | 7.14549 | 274 ft | 22 kts | 317° |
| 2026-04-22 20:37 | 50.86569 | 7.14375 | 267 ft | 26 kts | 317° |
| 2026-04-22 20:37 | 50.86677 | 7.14217 | 264 ft | 21 kts | 317° |
| 2026-04-22 20:37 | 50.86798 | 7.14100 | 260 ft | 20 kts | 324° |
| 2026-04-22 20:38 | 50.86823 | 7.14067 | 260 ft | 1 kts | 318° |
| 2026-04-22 20:38 | 50.86839 | 7.14044 | 260 ft | 6 kts | 318° |
| 2026-04-22 20:38 | 50.86895 | 7.13965 | 257 ft | 15 kts | 318° |
| 2026-04-22 20:38 | 50.86989 | 7.13831 | 249 ft | 21 kts | 317° |
| 2026-04-22 20:39 | 50.87103 | 7.13664 | 245 ft | 23 kts | 317° |
| 2026-04-22 20:39 | 50.87227 | 7.13483 | 240 ft | 21 kts | 317° |
| 2026-04-22 20:39 | 50.87292 | 7.13390 | 237 ft | 13 kts | 317° |
| 2026-04-22 20:39 | 50.87365 | 7.13284 | 237 ft | 15 kts | 317° |
| 2026-04-22 20:40 | 50.87441 | 7.13174 | 237 ft | 15 kts | 317° |
| 2026-04-22 20:40 | 50.87517 | 7.13063 | 237 ft | 15 kts | 317° |
| 2026-04-22 20:40 | 50.87593 | 7.12952 | 237 ft | 15 kts | 317° |
| 2026-04-22 20:40 | 50.87651 | 7.12869 | 237 ft | 7 kts | 317° |
| 2026-04-22 20:41 | 50.87690 | 7.12813 | 237 ft | 8 kts | 317° |
| 2026-04-22 20:41 | 50.87697 | 7.12803 | 237 ft | 0 kts | 317° |
| 2026-04-22 20:41 | 50.87701 | 7.12797 | 237 ft | 2 kts | 317° |
| 2026-04-22 20:41 | 50.87725 | 7.12761 | 237 ft | 6 kts | 317° |
| 2026-04-22 20:42 | 50.87735 | 7.12748 | 237 ft | 0 kts | 317° |
| 2026-04-22 20:43 | 50.87737 | 7.12745 | 237 ft | 1 kts | 317° |
| 2026-04-22 20:43 | 50.87751 | 7.12724 | 237 ft | 4 kts | 314° |
| 2026-04-22 20:43 | 50.87767 | 7.12663 | 237 ft | 8 kts | 277° |
| 2026-04-22 20:44 | 50.87761 | 7.12598 | 237 ft | 10 kts | 252° |
| 2026-04-22 20:44 | 50.87703 | 7.12517 | 237 ft | 13 kts | 198° |
| 2026-04-22 20:44 | 50.87587 | 7.12457 | 237 ft | 14 kts | 200° |
| 2026-04-22 20:44 | 50.87548 | 7.12382 | 237 ft | 14 kts | 265° |
| 2026-04-22 20:45 | 50.87583 | 7.12239 | 237 ft | 14 kts | 298° |
| 2026-04-22 20:45 | 50.87598 | 7.12176 | 237 ft | 3 kts | 266° |
| 2026-04-22 20:45 | 50.87587 | 7.12148 | 237 ft | 3 kts | 231° |
| 2026-04-22 20:45 | 50.87566 | 7.12122 | 237 ft | 3 kts | 214° |
| 2026-04-22 20:46 | 50.87560 | 7.12117 | 237 ft | 0 kts | 211° |
| 2026-04-22 20:46 | 50.87561 | 7.12117 | 237 ft | 0 kts | 210° |
| 2026-04-22 20:46 | 50.87560 | 7.12117 | 238 ft | 1 kts | 209° |